Bamako, Mali
Current Conditions -  °F | °C
As of 6:30 PM on Saturday 20 Dec 2014 (Local Time) from GABS Reporting Station
Clear Clear  
Wind Chill: 77°   Ceiling: Unl
Heat Index: 77°   Visibility: 5mi
Dew Point: 34°   Wind: 5mph
Humidity: 21%   Direction: 60°ENE
Pressure: 29.97"   Gusts: NA
Location:  12.65°N, 7.99°W
Report Text: GABS 201830Z 06004KT 8000 NSC 25/01 Q1015 NOSIG
Loading
Personal Weather Stations






























Interactive Weather Map New forecast layout! Learn more

10-Day Weather Forecast

Advertisements
Track Severe Weather on mobile